Time;durP1;ratioP1;P1;durP2;ratioP2;P2;SDS_P1;SDS_P2;PMS_P1;PMS_P2;Temp;Humidity;BMP_temperature;BMP_pressure;BME280_temperature;BME280_humidity;BME280_pressure;Samples;Min_cycle;Max_cycle;Signal;HPM_P1;HPM_P2
2023/10/17 00:01:01;;;;;;;6.55;2.50;;;7.90;99.90;;;;;;4856785;29;20542;-81
2023/10/17 00:03:27;;;;;;;6.35;2.22;;;8.00;99.90;;;;;;4874078;29;20198;-81
2023/10/17 00:05:56;;;;;;;6.75;2.38;;;7.90;99.90;;;;;;4874239;29;20514;-81
2023/10/17 00:08:22;;;;;;;8.00;2.80;;;7.90;99.90;;;;;;4874501;29;20411;-81
2023/10/17 00:10:48;;;;;;;8.45;2.60;;;8.20;99.90;;;;;;4857798;29;20052;-81
2023/10/17 00:13:38;;;;;;;7.13;2.30;;;7.90;99.90;;;;;;4875431;29;20048;-81
2023/10/17 00:16:11;;;;;;;6.45;2.63;;;7.80;99.90;;;;;;4873138;29;20049;-81
2023/10/17 00:18:38;;;;;;;6.90;2.60;;;7.80;99.90;;;;;;4871845;29;20128;-82
2023/10/17 00:21:11;;;;;;;6.85;2.50;;;7.80;99.90;;;;;;4838750;29;20032;-81
2023/10/17 00:23:39;;;;;;;7.55;2.65;;;7.80;99.90;;;;;;4842203;29;20590;-81
2023/10/17 00:26:08;;;;;;;7.07;2.47;;;7.80;99.90;;;;;;4871572;29;20049;-81
2023/10/17 00:28:35;;;;;;;6.05;2.40;;;7.80;99.90;;;;;;4852696;29;20041;-81
2023/10/17 00:31:04;;;;;;;7.20;2.65;;;7.80;99.90;;;;;;4851749;29;20605;-81
2023/10/17 00:33:32;;;;;;;6.15;2.33;;;7.80;99.90;;;;;;4870436;29;20372;-81
2023/10/17 00:35:58;;;;;;;6.05;2.30;;;7.80;99.90;;;;;;4857695;29;20047;-81
2023/10/17 00:38:29;;;;;;;7.75;2.25;;;7.80;99.90;;;;;;4890138;29;20088;-81
2023/10/17 00:40:56;;;;;;;6.70;2.67;;;7.70;99.90;;;;;;4854905;29;20079;-81
2023/10/17 00:43:28;;;;;;;6.97;2.50;;;7.70;99.90;;;;;;4857358;29;20101;-81
2023/10/17 00:45:53;;;;;;;6.10;2.47;;;7.80;99.90;;;;;;4841404;29;20456;-81
2023/10/17 00:48:26;;;;;;;6.63;2.80;;;7.90;99.90;;;;;;4859256;29;20037;-81
2023/10/17 00:51:08;;;;;;;6.80;2.47;;;7.80;99.90;;;;;;4857068;29;20037;-81
2023/10/17 00:53:39;;;;;;;7.93;2.50;;;7.70;99.90;;;;;;4873828;29;20704;-81
2023/10/17 00:56:06;;;;;;;7.57;2.40;;;8.00;99.90;;;;;;4873762;29;20418;-81
2023/10/17 00:58:33;;;;;;;6.93;2.53;;;7.80;99.90;;;;;;4842213;29;20515;-81
2023/10/17 01:01:26;;;;;;;6.72;2.30;;;8.30;99.90;;;;;;4856723;29;20120;-81
2023/10/17 01:03:51;;;;;;;5.63;2.30;;;7.70;99.90;;;;;;4869933;29;20048;-81
2023/10/17 01:08:50;;;;;;;6.78;2.30;;;7.70;99.90;;;;;;4871945;29;20040;-81
2023/10/17 01:11:21;;;;;;;6.65;2.47;;;7.80;99.90;;;;;;4843121;29;20049;-81
2023/10/17 01:13:54;;;;;;;7.40;2.78;;;7.80;99.90;;;;;;4887424;29;20136;-81
2023/10/17 01:16:21;;;;;;;6.97;2.40;;;7.80;99.90;;;;;;4835075;29;20056;-81
2023/10/17 01:18:47;;;;;;;7.93;2.40;;;7.90;99.90;;;;;;4839893;29;20049;-81
2023/10/17 01:21:18;;;;;;;6.07;2.33;;;7.90;99.90;;;;;;4838473;29;20064;-80
2023/10/17 01:23:45;;;;;;;5.57;2.17;;;7.90;99.90;;;;;;4853938;29;20049;-81
2023/10/17 01:26:20;;;;;;;5.97;2.40;;;7.90;99.90;;;;;;4823772;29;20427;-81
2023/10/17 01:28:50;;;;;;;6.18;2.30;;;8.20;99.90;;;;;;4855590;29;20061;-81
2023/10/17 01:31:22;;;;;;;6.03;2.22;;;7.90;99.90;;;;;;4833962;29;20053;-81
2023/10/17 01:33:59;;;;;;;6.82;2.33;;;7.90;99.90;;;;;;4850969;29;20117;-81
2023/10/17 01:36:25;;;;;;;7.05;2.35;;;8.00;99.90;;;;;;4867874;29;20116;-81
2023/10/17 01:38:52;;;;;;;5.55;2.03;;;8.00;99.90;;;;;;4854786;29;20096;-81
2023/10/17 01:41:19;;;;;;;6.43;2.20;;;8.00;99.90;;;;;;4841373;29;20056;-81
2023/10/17 01:43:45;;;;;;;5.57;2.38;;;8.00;99.90;;;;;;4841010;29;20036;-81
2023/10/17 01:46:15;;;;;;;7.22;2.20;;;8.00;99.90;;;;;;4826331;29;20124;-81
2023/10/17 01:48:48;;;;;;;6.47;2.75;;;8.00;99.90;;;;;;4827797;29;20079;-81
2023/10/17 01:51:17;;;;;;;4.32;1.70;;;8.20;99.90;;;;;;4858065;29;20088;-81
2023/10/17 01:53:48;;;;;;;6.28;2.17;;;8.00;99.90;;;;;;4842100;29;20044;-81
2023/10/17 01:56:14;;;;;;;5.57;2.20;;;8.00;99.90;;;;;;4838234;29;20373;-81
2023/10/17 01:59:06;;;;;;;5.45;2.10;;;8.00;99.90;;;;;;4856456;29;21588;-81
2023/10/17 02:01:36;;;;;;;5.25;1.85;;;8.00;99.90;;;;;;4856727;29;20060;-81
2023/10/17 02:04:03;;;;;;;5.85;2.05;;;7.90;99.90;;;;;;4826501;29;20556;-81
2023/10/17 02:06:30;;;;;;;5.63;2.10;;;7.80;99.90;;;;;;4851721;29;20069;-81
2023/10/17 02:08:58;;;;;;;6.95;2.17;;;7.80;99.90;;;;;;4853710;29;20085;-82
2023/10/17 02:11:25;;;;;;;4.82;2.05;;;7.80;99.90;;;;;;4845293;29;20045;-81
2023/10/17 02:13:56;;;;;;;5.25;2.10;;;7.70;99.90;;;;;;4838968;29;20045;-80
2023/10/17 02:16:28;;;;;;;4.45;2.00;;;7.70;99.90;;;;;;4860844;29;20104;-80
2023/10/17 02:18:54;;;;;;;7.32;2.30;;;7.60;99.90;;;;;;4833598;29;20048;-80
2023/10/17 02:21:23;;;;;;;4.90;2.20;;;7.60;99.90;;;;;;4873715;29;20055;-81
2023/10/17 02:23:51;;;;;;;5.35;2.10;;;7.60;99.90;;;;;;4857718;29;20444;-81
2023/10/17 02:26:22;;;;;;;5.43;2.20;;;7.80;99.90;;;;;;4858997;29;20044;-81
2023/10/17 02:28:54;;;;;;;5.90;2.53;;;7.50;99.90;;;;;;4875699;29;20072;-81
2023/10/17 02:31:30;;;;;;;5.75;2.10;;;7.40;99.90;;;;;;4855165;29;20384;-81
2023/10/17 02:33:56;;;;;;;8.52;2.65;;;7.30;99.90;;;;;;4887714;29;20096;-81
2023/10/17 02:36:22;;;;;;;6.85;2.40;;;7.30;99.90;;;;;;4859041;29;20048;-81
2023/10/17 02:38:49;;;;;;;5.28;2.15;;;7.30;99.90;;;;;;4876043;29;20037;-81
2023/10/17 02:41:31;;;;;;;5.47;2.10;;;7.40;99.90;;;;;;4872063;29;20186;-81
2023/10/17 02:43:58;;;;;;;5.97;2.20;;;7.20;99.90;;;;;;4854575;29;20048;-81
2023/10/17 02:46:27;;;;;;;6.60;2.45;;;7.10;99.90;;;;;;4852963;29;20124;-81
2023/10/17 02:48:54;;;;;;;6.13;2.45;;;7.30;99.90;;;;;;4858509;29;20127;-81
2023/10/17 02:53:53;;;;;;;5.97;2.40;;;7.10;99.90;;;;;;4855326;29;20131;-81
2023/10/17 02:56:19;;;;;;;6.30;2.28;;;7.00;99.90;;;;;;4860664;29;20054;-81
2023/10/17 02:59:03;;;;;;;6.20;2.47;;;7.00;99.90;;;;;;4860320;29;20471;-81
2023/10/17 03:01:30;;;;;;;6.85;2.30;;;7.00;99.90;;;;;;4845548;29;20048;-81
2023/10/17 03:03:56;;;;;;;7.35;2.60;;;6.90;99.90;;;;;;4841591;29;20116;-81
2023/10/17 03:06:22;;;;;;;6.57;2.50;;;8.30;99.90;;;;;;4843844;29;20049;-81
2023/10/17 03:08:52;;;;;;;6.38;2.42;;;7.50;99.90;;;;;;4857575;29;20518;-81
2023/10/17 03:11:26;;;;;;;7.60;2.60;;;6.90;99.90;;;;;;4859577;29;20045;-81
2023/10/17 03:13:53;;;;;;;6.82;2.58;;;6.90;99.90;;;;;;4856995;29;20494;-81
2023/10/17 03:16:25;;;;;;;7.32;2.75;;;6.80;99.90;;;;;;4875719;29;20063;-81
2023/10/17 03:18:52;;;;;;;8.45;2.90;;;6.80;99.90;;;;;;4874062;29;20487;-81
2023/10/17 03:21:20;;;;;;;6.35;2.40;;;6.80;99.90;;;;;;4891090;29;20402;-81
2023/10/17 03:23:49;;;;;;;7.05;2.53;;;6.80;99.90;;;;;;4891715;29;20087;-81
2023/10/17 03:26:18;;;;;;;7.90;2.50;;;6.70;99.90;;;;;;4859263;29;20068;-81
2023/10/17 03:28:48;;;;;;;7.10;2.60;;;6.80;99.90;;;;;;4871407;29;20133;-81
2023/10/17 03:31:20;;;;;;;6.32;2.22;;;6.80;99.90;;;;;;4858998;29;20040;-81
2023/10/17 03:33:52;;;;;;;8.68;2.70;;;6.80;99.90;;;;;;4889931;29;20628;-81
2023/10/17 03:36:40;;;;;;;5.82;2.33;;;7.00;99.90;;;;;;4874081;29;20169;-81
2023/10/17 03:39:27;;;;;;;7.63;2.20;;;6.80;99.90;;;;;;4845541;29;20047;-81
2023/10/17 03:41:58;;;;;;;7.55;2.30;;;6.90;99.90;;;;;;4888227;29;20045;-81
2023/10/17 03:44:30;;;;;;;6.75;2.25;;;7.00;99.90;;;;;;4872557;29;20055;-81
2023/10/17 03:47:03;;;;;;;6.53;2.20;;;6.90;99.90;;;;;;4858087;29;20272;-81
2023/10/17 03:49:36;;;;;;;6.90;2.20;;;6.90;99.90;;;;;;4874882;29;20043;-81
2023/10/17 03:52:06;;;;;;;5.07;1.95;;;7.10;99.90;;;;;;4844111;29;20048;-81
2023/10/17 03:54:38;;;;;;;4.47;1.80;;;7.00;99.90;;;;;;4858442;29;20487;-81
2023/10/17 03:57:13;;;;;;;4.78;1.80;;;7.00;99.90;;;;;;4857183;29;20040;-81
2023/10/17 03:59:40;;;;;;;5.03;1.98;;;7.10;99.90;;;;;;4859525;29;20036;-81
2023/10/17 04:02:17;;;;;;;4.25;1.70;;;7.10;99.90;;;;;;4874248;29;20074;-81
2023/10/17 04:04:53;;;;;;;4.53;1.77;;;7.40;99.90;;;;;;4889314;29;20041;-81
2023/10/17 04:07:31;;;;;;;4.70;1.90;;;7.20;99.90;;;;;;4871150;29;20041;-81
2023/10/17 04:13:05;;;;;;;6.75;2.17;;;7.20;99.90;;;;;;4872331;29;20040;-80
2023/10/17 04:15:27;;;;;;;5.72;2.08;;;7.10;99.90;;;;;;4870894;29;20202;-81
2023/10/17 04:17:52;;;;;;;7.10;2.33;;;7.20;99.90;;;;;;4872474;29;20140;-81
2023/10/17 04:20:22;;;;;;;6.35;2.20;;;7.20;99.90;;;;;;4857789;29;20170;-81
2023/10/17 04:22:49;;;;;;;6.53;2.35;;;7.20;99.90;;;;;;4859625;29;20131;-81
2023/10/17 04:25:20;;;;;;;7.18;2.40;;;7.50;99.90;;;;;;4873433;29;20119;-81
2023/10/17 04:27:53;;;;;;;6.20;2.30;;;7.20;99.90;;;;;;4857293;29;20056;-81
2023/10/17 04:30:22;;;;;;;7.00;2.15;;;7.20;99.90;;;;;;4870528;29;20053;-81
2023/10/17 04:32:52;;;;;;;5.65;2.17;;;7.20;99.90;;;;;;4872175;29;20558;-80
2023/10/17 04:35:20;;;;;;;6.10;2.42;;;7.20;99.90;;;;;;4873270;29;20048;-81
2023/10/17 04:38:09;;;;;;;7.20;2.70;;;7.20;99.90;;;;;;4857252;29;20060;-81
2023/10/17 04:40:42;;;;;;;8.57;2.63;;;7.30;99.90;;;;;;4874295;29;20460;-81
2023/10/17 04:45:57;;;;;;;7.35;2.65;;;7.20;99.90;;;;;;4841567;29;20185;-81
2023/10/17 04:48:46;;;;;;;6.40;2.45;;;7.20;99.90;;;;;;4873702;29;20131;-81
2023/10/17 04:51:20;;;;;;;8.40;2.40;;;7.20;99.90;;;;;;4860088;29;20404;-81
2023/10/17 04:53:49;;;;;;;6.38;2.55;;;7.20;99.90;;;;;;4857740;29;20040;-81
2023/10/17 04:56:17;;;;;;;7.20;2.20;;;7.40;99.90;;;;;;4872380;29;20646;-81
2023/10/17 05:01:53;;;;;;;6.97;2.33;;;7.20;99.90;;;;;;4871378;29;20101;-82
2023/10/17 05:04:19;;;;;;;7.15;2.45;;;7.20;99.90;;;;;;4839118;29;20502;-80
2023/10/17 06:18:26;;;;;;;7.90;2.78;;;7.70;99.90;;;;;;4872446;29;20056;-80
2023/10/17 06:34:22;;;;;;;6.85;2.60;;;8.00;99.90;;;;;;4890742;29;20052;-80
2023/10/17 06:36:59;;;;;;;8.63;2.67;;;7.80;99.90;;;;;;4878944;29;20043;-80
2023/10/17 06:39:27;;;;;;;7.50;2.60;;;7.80;99.90;;;;;;4875796;29;20104;-80
2023/10/17 06:41:59;;;;;;;6.65;2.45;;;7.80;99.90;;;;;;4860308;29;20052;-80
2023/10/17 06:44:26;;;;;;;6.45;2.38;;;8.10;99.90;;;;;;4872482;29;20036;-80
2023/10/17 06:52:18;;;;;;;7.28;2.78;;;7.70;99.90;;;;;;4873460;29;20498;-80
2023/10/17 06:54:43;;;;;;;7.10;2.85;;;7.70;99.90;;;;;;4871840;29;20503;-80
2023/10/17 06:57:23;;;;;;;6.47;2.58;;;7.70;99.90;;;;;;4874170;29;20037;-81
2023/10/17 07:00:01;;;;;;;6.68;2.90;;;7.80;99.90;;;;;;4887863;29;20119;-80
2023/10/17 07:02:34;;;;;;;7.10;2.70;;;7.80;99.90;;;;;;4872447;29;20150;-80
2023/10/17 07:05:01;;;;;;;7.20;2.60;;;7.80;99.90;;;;;;4875039;29;20510;-80
2023/10/17 07:08:01;;;;;;;8.43;3.20;;;7.90;99.90;;;;;;4890014;29;20463;-80
2023/10/17 07:13:34;;;;;;;8.50;3.15;;;7.90;99.90;;;;;;4873276;29;20041;-80
2023/10/17 07:16:11;;;;;;;7.75;3.10;;;8.00;99.90;;;;;;4893202;29;20049;-80
2023/10/17 07:21:38;;;;;;;6.93;2.75;;;8.10;99.90;;;;;;4846413;29;20415;-80
2023/10/17 07:24:07;;;;;;;6.90;2.80;;;8.10;99.90;;;;;;4871806;29;20135;-80
2023/10/17 07:28:59;;;;;;;7.15;2.92;;;8.10;99.90;;;;;;4875685;29;20049;-81
2023/10/17 07:31:26;;;;;;;6.80;2.67;;;8.20;99.90;;;;;;4869313;29;20063;-81
2023/10/17 07:34:38;;;;;;;7.30;2.88;;;8.40;99.90;;;;;;4872945;29;20062;-81
2023/10/17 07:36:38;;;;;;;8.20;2.60;;;8.30;99.90;;;;;;4844541;29;20269;-81
2023/10/17 07:39:06;;;;;;;6.70;2.60;;;8.30;99.90;;;;;;4883288;29;20048;-80
2023/10/17 07:41:38;;;;;;;7.20;2.78;;;8.50;99.90;;;;;;4870072;29;20526;-80
2023/10/17 07:44:19;;;;;;;8.15;2.92;;;8.50;99.90;;;;;;4871700;29;20040;-80
2023/10/17 07:46:50;;;;;;;6.43;2.60;;;8.60;99.90;;;;;;4887337;29;20123;-80
2023/10/17 07:49:25;;;;;;;8.38;3.05;;;8.50;99.90;;;;;;4860848;29;20778;-81
2023/10/17 07:51:52;;;;;;;7.13;2.75;;;8.60;99.90;;;;;;4870212;29;20147;-80
2023/10/17 07:54:18;;;;;;;7.32;2.80;;;8.70;99.90;;;;;;4874667;29;20042;-81
2023/10/17 07:56:50;;;;;;;7.45;2.40;;;8.80;99.90;;;;;;4861370;29;20045;-81
2023/10/17 07:59:30;;;;;;;7.72;2.63;;;8.80;99.90;;;;;;4863320;29;20051;-80
2023/10/17 08:02:00;;;;;;;6.47;2.60;;;8.90;99.90;;;;;;4860383;29;20411;-80
2023/10/17 08:04:36;;;;;;;8.80;2.97;;;8.90;99.90;;;;;;4874213;29;20459;-80
2023/10/17 08:07:03;;;;;;;6.57;2.50;;;9.00;99.90;;;;;;4877510;29;20050;-80
2023/10/17 08:09:36;;;;;;;7.75;3.05;;;9.10;99.90;;;;;;4877131;29;20047;-80
2023/10/17 08:12:08;;;;;;;7.97;3.05;;;9.10;99.90;;;;;;4860130;29;20044;-80
2023/10/17 08:14:42;;;;;;;8.18;2.88;;;9.10;99.90;;;;;;4878283;29;20101;-80
2023/10/17 08:17:11;;;;;;;6.93;2.80;;;9.20;99.90;;;;;;4872162;29;20076;-80
2023/10/17 08:22:25;;;;;;;8.77;2.90;;;9.20;99.90;;;;;;4859453;29;20576;-80
2023/10/17 08:24:51;;;;;;;7.45;2.95;;;9.20;99.90;;;;;;4872963;29;20097;-81
2023/10/17 08:29:57;;;;;;;10.02;2.95;;;9.50;99.90;;;;;;4851915;29;20053;-80
2023/10/17 08:35:38;;;;;;;7.28;2.92;;;9.70;99.90;;;;;;4858082;29;20112;-80
2023/10/17 08:37:44;;;;;;;8.00;2.92;;;9.90;99.90;;;;;;4846360;29;20519;-80
2023/10/17 08:43:03;;;;;;;7.45;2.67;;;10.10;99.90;;;;;;4859548;29;20499;-80
2023/10/17 08:45:37;;;;;;;6.68;2.60;;;10.20;99.90;;;;;;4856865;29;20055;-81
2023/10/17 08:48:05;;;;;;;7.55;2.90;;;10.30;99.90;;;;;;4859140;29;20103;-81
2023/10/17 08:50:38;;;;;;;5.57;2.20;;;10.40;99.90;;;;;;4842967;29;20053;-80
2023/10/17 08:53:13;;;;;;;6.20;2.47;;;10.50;99.90;;;;;;4860050;29;20092;-80
2023/10/17 08:55:40;;;;;;;5.93;2.30;;;10.50;99.90;;;;;;4872642;29;20387;-80
2023/10/17 08:58:09;;;;;;;8.20;2.60;;;10.60;99.90;;;;;;4844368;29;20053;-81
2023/10/17 09:00:49;;;;;;;7.18;2.33;;;10.70;99.90;;;;;;4847376;29;20571;-80
2023/10/17 09:03:35;;;;;;;7.32;2.08;;;10.80;99.90;;;;;;4872405;29;20500;-81
2023/10/17 09:08:45;;;;;;;7.93;2.53;;;10.90;99.90;;;;;;4859340;29;20053;-80
2023/10/17 09:11:14;;;;;;;8.43;3.00;;;10.90;99.90;;;;;;4857859;29;20056;-80
2023/10/17 09:16:15;;;;;;;7.13;2.13;;;11.10;99.90;;;;;;4858196;29;20063;-80
2023/10/17 09:18:49;;;;;;;5.57;1.85;;;11.10;99.90;;;;;;4876726;29;20053;-80
2023/10/17 09:21:16;;;;;;;7.38;2.08;;;11.10;99.90;;;;;;4862003;29;20041;-81
2023/10/17 09:23:42;;;;;;;6.22;2.17;;;11.10;99.90;;;;;;4877674;29;20123;-80
2023/10/17 09:26:11;;;;;;;5.35;1.90;;;11.20;99.90;;;;;;4859215;29;20448;-80
2023/10/17 09:28:41;;;;;;;6.65;1.90;;;11.20;99.90;;;;;;4875752;29;20102;-80
2023/10/17 09:31:08;;;;;;;5.95;1.88;;;11.20;99.90;;;;;;4861585;29;20407;-81
2023/10/17 09:33:45;;;;;;;6.90;1.90;;;11.30;99.90;;;;;;4892375;29;20182;-80
2023/10/17 09:36:13;;;;;;;4.85;1.70;;;11.30;99.90;;;;;;4877625;29;20511;-81
2023/10/17 09:38:46;;;;;;;5.60;1.70;;;11.30;99.90;;;;;;4873883;29;20551;-81
2023/10/17 09:41:19;;;;;;;4.70;1.67;;;11.30;99.90;;;;;;4847355;29;20071;-80
2023/10/17 09:43:50;;;;;;;6.38;1.73;;;11.40;99.90;;;;;;4875352;29;20049;-80
2023/10/17 09:46:23;;;;;;;4.45;1.60;;;11.50;99.90;;;;;;4870941;29;20072;-80
2023/10/17 09:48:51;;;;;;;;;;;11.50;99.90;;;;;;4876033;29;20087;-80
2023/10/17 09:51:22;;;;;;;3.28;1.50;;;11.50;99.90;;;;;;4875542;29;19923;-80
2023/10/17 09:53:58;;;;;;;4.82;1.58;;;11.50;99.90;;;;;;4858538;29;20081;-80
2023/10/17 09:56:31;;;;;;;6.07;1.60;;;11.60;99.90;;;;;;4857614;29;20037;-80
2023/10/17 09:59:03;;;;;;;4.57;1.70;;;11.60;99.90;;;;;;4891878;29;21156;-80
2023/10/17 10:01:31;;;;;;;6.90;1.88;;;11.70;99.90;;;;;;4862543;29;20051;-81
2023/10/17 10:04:01;;;;;;;4.43;1.70;;;11.70;99.90;;;;;;4881016;29;20040;-81
2023/10/17 10:06:36;;;;;;;4.03;1.58;;;11.80;99.90;;;;;;4864138;29;20044;-80
2023/10/17 10:09:06;;;;;;;6.75;1.95;;;11.80;99.90;;;;;;4879809;29;20037;-81
2023/10/17 10:11:52;;;;;;;5.53;1.98;;;11.80;99.90;;;;;;4876725;29;20053;-80
2023/10/17 10:14:27;;;;;;;4.97;1.75;;;11.90;99.90;;;;;;4895358;29;20052;-81
2023/10/17 10:16:54;;;;;;;4.82;1.52;;;11.80;99.90;;;;;;4864391;29;20067;-81
2023/10/17 10:19:21;;;;;;;4.63;1.70;;;11.90;99.90;;;;;;4863831;29;20060;-81
2023/10/17 10:21:59;;;;;;;5.13;1.63;;;11.90;99.90;;;;;;4863795;29;20044;-80
2023/10/17 10:24:31;;;;;;;3.75;1.30;;;11.90;99.90;;;;;;4863764;29;20205;-80
2023/10/17 10:27:25;;;;;;;3.70;1.50;;;11.90;99.90;;;;;;4878561;29;20059;-80
2023/10/17 10:30:17;;;;;;;4.63;1.58;;;11.90;99.90;;;;;;4893882;29;20399;-80
2023/10/17 10:32:44;;;;;;;4.85;1.63;;;11.90;99.90;;;;;;4871942;29;20115;-81
2023/10/17 10:35:11;;;;;;;5.43;1.65;;;11.90;99.90;;;;;;4879909;29;20076;-81
2023/10/17 10:37:56;;;;;;;3.85;1.33;;;11.90;99.90;;;;;;4880468;29;20041;-81
2023/10/17 10:40:24;;;;;;;4.90;1.60;;;12.00;99.90;;;;;;4879062;29;20547;-81
2023/10/17 10:42:56;;;;;;;4.63;1.65;;;12.00;99.90;;;;;;4877970;29;20127;-80
2023/10/17 10:45:35;;;;;;;4.45;1.75;;;12.00;99.90;;;;;;4879110;29;20481;-80
2023/10/17 10:48:04;;;;;;;4.20;1.52;;;12.10;99.90;;;;;;4865447;29;20127;-80
2023/10/17 10:50:34;;;;;;;3.42;1.40;;;12.10;99.90;;;;;;4879835;29;20048;-81
2023/10/17 10:53:01;;;;;;;6.65;1.70;;;12.10;99.90;;;;;;4878322;29;20047;-80
2023/10/17 10:55:28;;;;;;;4.25;1.50;;;12.10;99.90;;;;;;4880041;29;20072;-80
2023/10/17 10:57:54;;;;;;;3.88;1.38;;;12.10;99.90;;;;;;4877744;29;20407;-80
2023/10/17 11:00:20;;;;;;;3.30;1.25;;;12.10;99.90;;;;;;4877997;29;20040;-80
2023/10/17 11:02:46;;;;;;;3.40;1.38;;;12.10;99.90;;;;;;4878200;29;20049;-81
2023/10/17 11:05:15;;;;;;;3.28;1.20;;;12.10;99.90;;;;;;4879645;29;20067;-81
2023/10/17 11:07:42;;;;;;;4.95;1.40;;;12.10;99.90;;;;;;4876553;29;20043;-80
2023/10/17 11:10:13;;;;;;;3.05;1.35;;;12.20;99.90;;;;;;4863852;29;20049;-80
2023/10/17 11:12:40;;;;;;;3.70;1.58;;;12.20;99.90;;;;;;4861371;29;20045;-80
2023/10/17 11:15:18;;;;;;;3.55;1.42;;;12.20;99.90;;;;;;4866285;29;20095;-80
2023/10/17 11:17:45;;;;;;;5.15;1.48;;;12.20;99.90;;;;;;4877559;29;20140;-82
2023/10/17 11:20:15;;;;;;;3.47;1.27;;;12.20;99.90;;;;;;4897609;29;20048;-81
2023/10/17 11:22:45;;;;;;;4.18;1.42;;;12.20;99.90;;;;;;4861559;29;20077;-81
2023/10/17 11:25:21;;;;;;;3.85;1.38;;;12.20;99.90;;;;;;4894610;29;20608;-81
2023/10/17 11:28:10;;;;;;;3.17;1.35;;;12.10;99.90;;;;;;4869819;29;20066;-80
2023/10/17 11:30:40;;;;;;;4.57;1.33;;;12.20;99.90;;;;;;4873353;29;20036;-81
2023/10/17 11:33:31;;;;;;;4.05;1.40;;;12.30;99.90;;;;;;4872675;29;20082;-80
2023/10/17 11:36:03;;;;;;;3.47;1.30;;;12.40;99.90;;;;;;4869154;29;20040;-80
2023/10/17 11:38:37;;;;;;;3.78;1.35;;;12.50;99.90;;;;;;4886206;29;20033;-80
2023/10/17 11:41:05;;;;;;;5.35;1.58;;;12.50;99.90;;;;;;4872494;29;20038;-80
2023/10/17 11:43:46;;;;;;;4.18;1.50;;;12.60;99.90;;;;;;4895648;29;20469;-82
2023/10/17 11:46:12;;;;;;;4.57;1.80;;;12.60;99.90;;;;;;4874394;29;20050;-81
2023/10/17 11:48:44;;;;;;;2.88;1.35;;;12.50;99.90;;;;;;4845991;29;20491;-80
2023/10/17 11:51:18;;;;;;;4.00;1.58;;;12.50;99.90;;;;;;4867067;29;20048;-82
2023/10/17 11:54:08;;;;;;;4.30;1.63;;;12.40;99.90;;;;;;4854174;29;20054;-82
2023/10/17 11:56:37;;;;;;;3.45;1.35;;;12.40;99.90;;;;;;4874719;29;20063;-81
2023/10/17 11:59:06;;;;;;;4.38;1.38;;;12.40;99.90;;;;;;4856093;29;20048;-81
2023/10/17 12:01:35;;;;;;;3.72;1.40;;;12.50;99.90;;;;;;4890068;29;20043;-81
2023/10/17 12:04:05;;;;;;;3.08;1.23;;;12.60;99.90;;;;;;4857363;29;20088;-80
2023/10/17 12:06:35;;;;;;;4.50;1.40;;;12.60;99.90;;;;;;4871603;29;20155;-81
2023/10/17 12:09:22;;;;;;;2.80;1.40;;;12.70;99.90;;;;;;4858842;29;20039;-81
2023/10/17 12:11:54;;;;;;;3.72;1.30;;;12.70;99.90;;;;;;4855062;29;20084;-81
2023/10/17 12:14:21;;;;;;;3.33;1.50;;;12.70;99.90;;;;;;4869742;29;20045;-80
2023/10/17 12:16:58;;;;;;;4.28;1.85;;;12.70;99.90;;;;;;4844181;29;20507;-82
2023/10/17 12:19:28;;;;;;;3.20;1.40;;;12.70;99.90;;;;;;4872704;29;20048;-81
2023/10/17 12:21:55;;;;;;;4.40;1.80;;;12.70;99.90;;;;;;4871472;29;20135;-81
2023/10/17 12:24:28;;;;;;;3.28;1.40;;;12.70;99.90;;;;;;4885278;29;20282;-81
2023/10/17 12:26:55;;;;;;;;;;;12.70;99.90;;;;;;4874681;29;20139;-81
2023/10/17 12:29:25;;;;;;;4.18;1.40;;;12.70;99.90;;;;;;4887666;29;19920;-81
2023/10/17 12:31:57;;;;;;;2.47;1.30;;;12.80;99.90;;;;;;4887820;29;20044;-81
2023/10/17 12:34:23;;;;;;;4.13;1.42;;;12.80;99.90;;;;;;4888502;29;20048;-81
2023/10/17 12:36:48;;;;;;;3.83;1.80;;;12.90;99.90;;;;;;4857982;29;20513;-81
2023/10/17 12:39:16;;;;;;;5.70;1.88;;;12.90;99.90;;;;;;4875244;29;20193;-81
2023/10/17 12:41:44;;;;;;;2.83;1.40;;;12.90;99.90;;;;;;4872792;29;20411;-81
2023/10/17 12:44:09;;;;;;;3.13;1.42;;;12.80;99.90;;;;;;4888078;29;20040;-81
2023/10/17 12:46:35;;;;;;;3.80;1.38;;;12.80;99.90;;;;;;4874416;29;20127;-82
2023/10/17 12:49:01;;;;;;;4.82;1.70;;;12.80;99.90;;;;;;4886873;29;20700;-81
2023/10/17 12:51:27;;;;;;;4.18;1.48;;;12.90;99.90;;;;;;4855981;29;20064;-83
2023/10/17 12:53:54;;;;;;;3.63;1.65;;;12.90;99.90;;;;;;4842654;29;20080;-81
2023/10/17 12:56:24;;;;;;;3.70;1.50;;;12.90;99.90;;;;;;4859439;29;20036;-82
2023/10/17 12:58:51;;;;;;;4.22;1.52;;;12.80;99.90;;;;;;4874174;29;20128;-81
2023/10/17 13:01:17;;;;;;;3.08;1.40;;;12.80;99.90;;;;;;4869999;29;20048;-81
2023/10/17 13:03:43;;;;;;;4.60;1.48;;;12.80;99.90;;;;;;4871751;29;20130;-81
2023/10/17 13:06:09;;;;;;;4.18;1.50;;;12.90;99.90;;;;;;4888415;29;20550;-81
2023/10/17 13:08:36;;;;;;;4.88;1.50;;;12.90;99.90;;;;;;4886260;29;20082;-81
2023/10/17 13:11:06;;;;;;;4.72;1.58;;;12.90;99.90;;;;;;4871529;29;20036;-81
2023/10/17 13:13:32;;;;;;;2.55;1.30;;;13.00;99.90;;;;;;4853359;29;20636;-81
2023/10/17 13:15:59;;;;;;;3.65;1.50;;;13.00;99.90;;;;;;4870003;29;20045;-82
2023/10/17 13:18:28;;;;;;;3.22;1.45;;;13.00;99.90;;;;;;4873337;29;20266;-80
2023/10/17 13:21:02;;;;;;;3.65;1.38;;;13.00;99.90;;;;;;4857135;29;20096;-81
2023/10/17 13:23:28;;;;;;;3.17;1.35;;;13.00;99.90;;;;;;4855267;29;20072;-81
2023/10/17 13:25:54;;;;;;;4.78;1.50;;;13.10;99.90;;;;;;4857873;29;20068;-81
2023/10/17 13:28:20;;;;;;;2.45;1.30;;;13.10;99.90;;;;;;4855252;29;20499;-81
2023/10/17 13:30:45;;;;;;;2.40;1.10;;;13.10;99.90;;;;;;4854065;29;20040;-81
2023/10/17 13:33:12;;;;;;;4.30;1.30;;;13.00;99.90;;;;;;4852772;29;20511;-81
2023/10/17 13:35:41;;;;;;;3.97;1.35;;;13.00;99.90;;;;;;4872176;29;21494;-81
2023/10/17 13:38:07;;;;;;;4.13;1.40;;;13.10;99.90;;;;;;4892238;29;20063;-81
2023/10/17 13:40:32;;;;;;;3.80;1.55;;;13.10;99.90;;;;;;4876644;29;20052;-82
2023/10/17 13:43:04;;;;;;;2.17;1.02;;;13.00;99.90;;;;;;4859610;29;20055;-81
2023/10/17 13:45:29;;;;;;;3.95;1.25;;;13.00;99.90;;;;;;4854147;29;20535;-81
2023/10/17 13:47:55;;;;;;;3.20;1.20;;;13.00;99.90;;;;;;4859100;29;20075;-81
2023/10/17 13:50:22;;;;;;;3.60;1.50;;;13.00;99.90;;;;;;4877773;29;20040;-80
2023/10/17 13:52:49;;;;;;;3.42;1.30;;;13.00;99.90;;;;;;4875751;29;20430;-80
2023/10/17 13:55:25;;;;;;;2.60;1.23;;;13.00;99.90;;;;;;4860271;29;20129;-80
2023/10/17 13:57:55;;;;;;;4.53;1.40;;;13.00;99.90;;;;;;4877120;29;20040;-81
2023/10/17 14:00:24;;;;;;;2.78;1.15;;;13.00;99.90;;;;;;4876315;29;20156;-81
2023/10/17 14:02:50;;;;;;;2.95;1.10;;;13.00;99.90;;;;;;4875838;29;20044;-81
2023/10/17 14:05:17;;;;;;;2.50;1.08;;;13.00;99.90;;;;;;4843231;29;20253;-81
2023/10/17 14:07:43;;;;;;;3.30;1.38;;;13.00;99.90;;;;;;4874180;29;20044;-80
2023/10/17 14:10:11;;;;;;;3.25;1.25;;;13.00;99.90;;;;;;4875181;29;20495;-81
2023/10/17 14:12:40;;;;;;;1.65;1.17;;;13.00;99.90;;;;;;4858418;29;20100;-81
2023/10/17 14:15:08;;;;;;;4.30;1.10;;;13.30;99.90;;;;;;4890747;29;20044;-81
2023/10/17 14:17:34;;;;;;;2.78;1.10;;;13.30;99.90;;;;;;4885338;29;20136;-81
2023/10/17 14:20:05;;;;;;;2.30;1.10;;;13.40;99.90;;;;;;4888799;29;20037;-81
2023/10/17 14:22:44;;;;;;;2.40;1.20;;;13.30;99.90;;;;;;4843671;29;20053;-82
2023/10/17 14:25:11;;;;;;;1.92;1.13;;;13.20;99.90;;;;;;4856363;29;20511;-81
2023/10/17 14:27:37;;;;;;;4.03;1.20;;;13.30;99.90;;;;;;4856026;29;20456;-81
2023/10/17 14:30:05;;;;;;;2.58;1.02;;;13.20;99.90;;;;;;4809638;29;20079;-81
2023/10/17 14:32:32;;;;;;;4.57;1.27;;;13.10;99.90;;;;;;4842236;29;20044;-81
2023/10/17 14:34:58;;;;;;;1.73;1.10;;;13.00;99.90;;;;;;4869277;29;20040;-80
2023/10/17 14:37:25;;;;;;;2.47;1.15;;;12.90;99.90;;;;;;4872090;29;20044;-80
2023/10/17 14:39:52;;;;;;;1.88;0.90;;;12.80;99.90;;;;;;4872513;29;20041;-81
2023/10/17 14:42:19;;;;;;;2.90;1.10;;;12.70;99.90;;;;;;4859468;29;20049;-80
2023/10/17 14:44:45;;;;;;;4.10;1.33;;;12.60;99.90;;;;;;4837706;29;20060;-80
2023/10/17 14:47:16;;;;;;;4.15;1.33;;;12.60;99.90;;;;;;4854644;29;20071;-81
2023/10/17 14:49:46;;;;;;;3.10;1.20;;;12.50;99.90;;;;;;4856344;29;20128;-80
2023/10/17 14:52:13;;;;;;;2.53;1.23;;;12.40;99.90;;;;;;4853721;29;20410;-80
2023/10/17 14:54:40;;;;;;;1.98;0.95;;;12.40;99.90;;;;;;4851887;29;20445;-81
2023/10/17 14:57:06;;;;;;;2.67;1.08;;;12.30;99.90;;;;;;4850814;29;20142;-82
2023/10/17 14:59:38;;;;;;;2.10;1.00;;;12.20;99.90;;;;;;4842981;29;20136;-80
2023/10/17 15:02:05;;;;;;;3.78;1.20;;;12.20;99.90;;;;;;4855517;29;20041;-80
2023/10/17 15:04:31;;;;;;;2.60;1.10;;;12.10;99.90;;;;;;4840839;29;20507;-80
2023/10/17 15:06:58;;;;;;;2.10;1.05;;;12.00;99.90;;;;;;4841996;29;20041;-80
2023/10/17 15:09:27;;;;;;;1.75;1.05;;;12.00;99.90;;;;;;4857521;29;20512;-80
2023/10/17 15:11:53;;;;;;;2.75;1.10;;;12.00;99.90;;;;;;4854828;29;20105;-80
2023/10/17 15:14:22;;;;;;;3.05;1.35;;;11.90;99.90;;;;;;4870586;29;20053;-80
2023/10/17 15:16:48;;;;;;;3.10;1.40;;;11.90;99.90;;;;;;4841997;29;20412;-80
2023/10/17 15:19:14;;;;;;;3.30;1.30;;;11.80;99.90;;;;;;4875898;29;20055;-80